createdAt,value
2022-09-23T00:01:10.858Z,101570.00
2022-09-23T00:03:45.603Z,101566.00
2022-09-23T00:06:18.346Z,101559.00
2022-09-23T00:08:49.678Z,101566.00
2022-09-23T00:11:23.822Z,101568.00
2022-09-23T00:13:57.433Z,101560.00
2022-09-23T00:16:34.444Z,101553.00
2022-09-23T00:19:05.304Z,101550.00
2022-09-23T00:21:35.445Z,101547.00
2022-09-23T00:24:05.911Z,101558.00
2022-09-23T00:26:36.009Z,101554.00
2022-09-23T00:29:06.598Z,101547.00
2022-09-23T00:31:39.582Z,101547.00
2022-09-23T00:34:10.055Z,101553.00
2022-09-23T00:36:40.559Z,101553.00
2022-09-23T00:39:10.830Z,101544.00
2022-09-23T00:41:41.588Z,101545.00
2022-09-23T00:44:43.963Z,101543.00
2022-09-23T00:47:22.844Z,101543.00
2022-09-23T00:50:01.889Z,101533.00
2022-09-23T00:52:32.586Z,101529.00
2022-09-23T00:55:05.989Z,101531.00
2022-09-23T00:57:37.283Z,101533.00
2022-09-23T01:00:10.902Z,101526.00
2022-09-23T01:02:43.834Z,101521.00
2022-09-23T01:05:13.968Z,101520.00
2022-09-23T01:07:44.264Z,101518.00
2022-09-23T01:10:16.104Z,101521.00
2022-09-23T01:13:13.529Z,101512.00
2022-09-23T01:15:52.556Z,101508.00
2022-09-23T01:18:35.273Z,101508.00
2022-09-23T01:21:20.092Z,101513.00
2022-09-23T01:24:20.393Z,101508.00
2022-09-23T01:27:03.941Z,101498.00
2022-09-23T01:30:08.845Z,101499.00
2022-09-23T01:33:09.182Z,101491.00
2022-09-23T01:35:51.173Z,101493.00
2022-09-23T01:38:38.197Z,101492.00
2022-09-23T01:44:33.469Z,101497.00
2022-09-23T01:47:11.113Z,101500.00
2022-09-23T01:49:53.590Z,101483.00
2022-09-23T01:52:30.601Z,101490.00
2022-09-23T01:55:09.499Z,101485.00
2022-09-23T01:57:43.739Z,101482.00
2022-09-23T02:00:18.670Z,101490.00
2022-09-23T02:02:54.309Z,101488.00
2022-09-23T02:05:33.631Z,101486.00
2022-09-23T02:08:10.443Z,101485.00
2022-09-23T02:10:47.537Z,101477.00
2022-09-23T02:13:24.366Z,101485.00
2022-09-23T02:16:01.318Z,101482.00
2022-09-23T02:18:37.424Z,101479.00
2022-09-23T02:21:12.938Z,101475.00
2022-09-23T02:23:49.064Z,101460.00
2022-09-23T02:26:26.042Z,101467.00
2022-09-23T02:29:09.368Z,101465.00
2022-09-23T02:31:46.300Z,101460.00
2022-09-23T02:34:26.047Z,101462.00
2022-09-23T02:37:12.240Z,101452.00
2022-09-23T02:39:55.672Z,101459.00
2022-09-23T02:42:34.900Z,101449.00
2022-09-23T02:45:05.564Z,101455.00
2022-09-23T02:47:40.832Z,101456.00
2022-09-23T02:50:12.166Z,101452.00
2022-09-23T02:52:45.094Z,101445.00
2022-09-23T02:55:20.404Z,101439.00
2022-09-23T02:57:50.845Z,101451.00
2022-09-23T03:00:21.172Z,101446.00
2022-09-23T03:03:13.483Z,101438.00
2022-09-23T03:05:55.253Z,101436.00
2022-09-23T03:08:42.474Z,101444.00
2022-09-23T03:11:15.738Z,101447.00
2022-09-23T03:14:05.249Z,101442.00
2022-09-23T03:16:43.783Z,101450.00
2022-09-23T03:19:26.735Z,101437.00
2022-09-23T03:22:05.535Z,101436.00
2022-09-23T03:24:41.206Z,101432.00
2022-09-23T03:27:17.924Z,101425.00
2022-09-23T03:29:51.791Z,101415.00
2022-09-23T03:32:27.603Z,101420.00
2022-09-23T03:35:00.740Z,101419.00
2022-09-23T03:37:36.168Z,101405.00
2022-09-23T03:40:18.299Z,101412.00
2022-09-23T03:42:49.456Z,101408.00
2022-09-23T03:45:26.234Z,101404.00
2022-09-23T03:47:56.641Z,101404.00
2022-09-23T03:50:27.182Z,101403.00
2022-09-23T03:52:57.418Z,101405.00
2022-09-23T03:55:30.361Z,101399.00
2022-09-23T03:58:00.477Z,101409.00
2022-09-23T04:00:30.735Z,101398.00
2022-09-23T04:03:00.924Z,101401.00
2022-09-23T04:05:31.122Z,101410.00
2022-09-23T04:08:01.260Z,101399.00
2022-09-23T04:10:34.068Z,101395.00
2022-09-23T04:13:04.146Z,101392.00
2022-09-23T04:15:34.329Z,101383.00
2022-09-23T04:18:04.484Z,101391.00
2022-09-23T04:20:34.665Z,101390.00
2022-09-23T04:23:04.757Z,101381.00
2022-09-23T04:25:37.569Z,101385.00
2022-09-23T04:28:07.785Z,101373.00
2022-09-23T04:30:37.864Z,101379.00
2022-09-23T04:33:08.108Z,101378.00
2022-09-23T04:35:40.354Z,101371.00
2022-09-23T04:38:10.948Z,101375.00
2022-09-23T04:40:43.841Z,101375.00
2022-09-23T04:43:15.992Z,101378.00
2022-09-23T04:45:46.679Z,101370.00
2022-09-23T04:48:17.749Z,101366.00
2022-09-23T04:50:48.962Z,101365.00
2022-09-23T04:53:19.266Z,101373.00
2022-09-23T04:55:52.444Z,101376.00
2022-09-23T04:58:23.219Z,101365.00
2022-09-23T05:00:53.313Z,101379.00
2022-09-23T05:03:23.920Z,101373.00
2022-09-23T05:05:54.742Z,101374.00
2022-09-23T05:08:24.999Z,101373.00
2022-09-23T05:11:00.427Z,101372.00
2022-09-23T05:13:31.600Z,101367.00
2022-09-23T05:16:02.661Z,101367.00
2022-09-23T05:18:34.902Z,101374.00
2022-09-23T05:21:05.936Z,101361.00
2022-09-23T05:23:36.598Z,101363.00
2022-09-23T05:26:11.848Z,101362.00
2022-09-23T05:28:42.529Z,101364.00
2022-09-23T05:31:20.053Z,101360.00
2022-09-23T05:33:53.353Z,101369.00
2022-09-23T05:36:24.701Z,101366.00
2022-09-23T05:38:56.681Z,101376.00
2022-09-23T05:41:30.245Z,101371.00
2022-09-23T05:44:00.441Z,101368.00
2022-09-23T05:46:33.321Z,101378.00
2022-09-23T05:49:05.622Z,101373.00
2022-09-23T05:51:38.356Z,101361.00
2022-09-23T05:54:09.044Z,101362.00
2022-09-23T05:56:41.799Z,101362.00
2022-09-23T05:59:12.010Z,101363.00
2022-09-23T06:01:42.316Z,101358.00
2022-09-23T06:04:16.997Z,101359.00
2022-09-23T06:06:47.186Z,101362.00
2022-09-23T06:09:18.290Z,101361.00
2022-09-23T06:11:51.128Z,101370.00
2022-09-23T06:14:21.488Z,101366.00
2022-09-23T06:16:51.609Z,101364.00
2022-09-23T06:19:21.783Z,101371.00
2022-09-23T06:21:52.287Z,101368.00
2022-09-23T06:24:27.238Z,101366.00
2022-09-23T06:27:03.138Z,101369.00
2022-09-23T06:29:37.088Z,101369.00
2022-09-23T06:32:07.536Z,101376.00
2022-09-23T06:34:50.049Z,101371.00
2022-09-23T06:37:21.579Z,101360.00
2022-09-23T06:39:52.027Z,101370.00
2022-09-23T06:42:24.757Z,101372.00
2022-09-23T06:44:54.934Z,101357.00
2022-09-23T06:47:25.130Z,101375.00
2022-09-23T06:49:55.327Z,101365.00
2022-09-23T06:52:26.800Z,101364.00
2022-09-23T06:54:56.994Z,101369.00
2022-09-23T06:57:33.016Z,101380.00
2022-09-23T07:00:03.498Z,101373.00
2022-09-23T07:02:33.807Z,101368.00
2022-09-23T07:05:04.073Z,101372.00
2022-09-23T07:07:36.903Z,101368.00
2022-09-23T07:10:09.144Z,101374.00
2022-09-23T07:12:41.887Z,101375.00
2022-09-23T07:15:13.561Z,101385.00
2022-09-23T07:17:45.647Z,101382.00
2022-09-23T07:20:18.148Z,101382.00
2022-09-23T07:22:52.681Z,101381.00
2022-09-23T07:25:23.156Z,101380.00
2022-09-23T07:27:56.210Z,101383.00
2022-09-23T07:30:26.549Z,101378.00
2022-09-23T07:32:57.163Z,101381.00
2022-09-23T07:35:28.288Z,101390.00
2022-09-23T07:37:58.594Z,101386.00
2022-09-23T07:40:29.300Z,101391.00
2022-09-23T07:43:02.187Z,101387.00
2022-09-23T07:45:33.216Z,101381.00
2022-09-23T07:48:05.723Z,101391.00
2022-09-23T07:50:35.933Z,101387.00
2022-09-23T07:53:06.615Z,101391.00
2022-09-23T07:55:37.478Z,101390.00
2022-09-23T07:58:10.286Z,101388.00
2022-09-23T08:00:40.745Z,101390.00
2022-09-23T08:03:11.098Z,101393.00
2022-09-23T08:05:41.633Z,101388.00
2022-09-23T08:08:14.241Z,101385.00
2022-09-23T08:10:44.605Z,101388.00
2022-09-23T08:13:17.371Z,101383.00
2022-09-23T08:15:55.399Z,101387.00
2022-09-23T08:18:25.943Z,101386.00
2022-09-23T08:20:56.231Z,101382.00
2022-09-23T08:23:26.512Z,101381.00
2022-09-23T08:26:00.999Z,101381.00
2022-09-23T08:28:35.287Z,101382.00
2022-09-23T08:31:05.563Z,101391.00
2022-09-23T08:33:35.763Z,101378.00
2022-09-23T08:36:06.508Z,101378.00
2022-09-23T08:38:37.093Z,101376.00
2022-09-23T08:41:15.323Z,101368.00
2022-09-23T08:43:52.006Z,101379.00
2022-09-23T08:46:27.257Z,101378.00
2022-09-23T08:48:58.825Z,101379.00
2022-09-23T08:51:42.731Z,101365.00
2022-09-23T08:54:14.011Z,101358.00
2022-09-23T08:56:48.207Z,101363.00
2022-09-23T08:59:29.364Z,101362.00
2022-09-23T09:02:03.304Z,101355.00
2022-09-23T09:04:46.850Z,101360.00
2022-09-23T09:07:37.953Z,101345.00
2022-09-23T09:10:17.284Z,101359.00
2022-09-23T09:12:49.725Z,101357.00
2022-09-23T09:15:26.754Z,101349.00
2022-09-23T09:18:07.912Z,101343.00
2022-09-23T09:20:45.196Z,101349.00
2022-09-23T09:23:25.381Z,101343.00
2022-09-23T09:25:57.951Z,101341.00
2022-09-23T09:28:36.516Z,101341.00
2022-09-23T09:31:25.611Z,101339.00
2022-09-23T09:34:02.238Z,101341.00
2022-09-23T09:36:43.045Z,101338.00
2022-09-23T09:39:16.774Z,101333.00
2022-09-23T09:41:51.976Z,101331.00
2022-09-23T09:44:30.121Z,101336.00
2022-09-23T09:47:19.089Z,101331.00
2022-09-23T09:50:00.856Z,101324.00
2022-09-23T09:52:32.513Z,101320.00
2022-09-23T09:55:28.086Z,101308.00
2022-09-23T09:58:04.251Z,101306.00
2022-09-23T10:00:52.554Z,101308.00
2022-09-23T10:03:36.985Z,101303.00
2022-09-23T10:06:19.780Z,101308.00
2022-09-23T10:09:18.262Z,101306.00
2022-09-23T10:12:18.723Z,101306.00
2022-09-23T10:14:52.006Z,101305.00
2022-09-23T10:17:25.568Z,101300.00
2022-09-23T10:20:03.760Z,101300.00
2022-09-23T10:22:39.902Z,101304.00
2022-09-23T10:25:13.387Z,101301.00
2022-09-23T10:27:43.559Z,101295.00
2022-09-23T10:30:25.644Z,101293.00
2022-09-23T10:32:57.251Z,101283.00
2022-09-23T10:35:34.612Z,101295.00
2022-09-23T10:38:05.053Z,101290.00
2022-09-23T10:40:52.056Z,101288.00
2022-09-23T10:43:43.772Z,101289.00
2022-09-23T10:46:34.079Z,101283.00
2022-09-23T10:49:50.007Z,101288.00
2022-09-23T10:52:40.256Z,101289.00
2022-09-23T10:55:34.809Z,101282.00
2022-09-23T10:58:36.780Z,101277.00
2022-09-23T11:01:23.118Z,101283.00
2022-09-23T11:04:12.921Z,101274.00
2022-09-23T11:07:02.610Z,101277.00
2022-09-23T11:09:50.592Z,101269.00
2022-09-23T11:12:38.189Z,101261.00
2022-09-23T11:15:32.863Z,101257.00
2022-09-23T11:18:39.170Z,101260.00
2022-09-23T11:21:51.929Z,101254.00
2022-09-23T11:24:52.157Z,101257.00
2022-09-23T11:27:42.761Z,101247.00
2022-09-23T11:30:15.542Z,101254.00
2022-09-23T11:33:16.311Z,101245.00
2022-09-23T11:35:53.376Z,101241.00
2022-09-23T11:38:29.602Z,101241.00
2022-09-23T11:41:06.700Z,101229.00
2022-09-23T11:43:41.497Z,101232.00
2022-09-23T11:46:20.055Z,101228.00
2022-09-23T11:48:57.157Z,101223.00
2022-09-23T11:51:34.809Z,101219.00
2022-09-23T11:54:12.099Z,101216.00
2022-09-23T11:56:49.318Z,101209.00
2022-09-23T11:59:40.178Z,101203.00
2022-09-23T12:02:28.191Z,101190.00
2022-09-23T12:05:06.934Z,101188.00
2022-09-23T12:07:53.496Z,101197.00
2022-09-23T12:10:25.670Z,101194.00
2022-09-23T12:13:09.057Z,101195.00
2022-09-23T12:15:55.514Z,101182.00
2022-09-23T12:18:43.155Z,101179.00
2022-09-23T12:21:50.232Z,101185.00
2022-09-23T12:24:50.693Z,101181.00
2022-09-23T12:27:29.875Z,101178.00
2022-09-23T12:30:05.804Z,101164.00
2022-09-23T12:32:36.840Z,101165.00
2022-09-23T12:35:08.830Z,101165.00
2022-09-23T12:37:41.720Z,101166.00
2022-09-23T12:40:24.450Z,101164.00
2022-09-23T12:42:54.820Z,101168.00
2022-09-23T12:45:43.652Z,101162.00
2022-09-23T12:49:01.044Z,101163.00
2022-09-23T12:51:32.709Z,101157.00
2022-09-23T12:54:27.576Z,101151.00
2022-09-23T12:57:03.536Z,101149.00
2022-09-23T12:59:51.160Z,101146.00
2022-09-23T13:02:37.600Z,101141.00
2022-09-23T13:05:35.439Z,101143.00
2022-09-23T13:08:11.908Z,101140.00
2022-09-23T13:10:49.574Z,101135.00
2022-09-23T13:13:29.843Z,101138.00
2022-09-23T13:16:15.276Z,101123.00
2022-09-23T13:18:59.119Z,101130.00
2022-09-23T13:22:04.075Z,101132.00
2022-09-23T13:24:46.341Z,101119.00
2022-09-23T13:27:28.349Z,101107.00
2022-09-23T13:30:08.396Z,101118.00
2022-09-23T13:32:46.293Z,101112.00
2022-09-23T13:35:29.484Z,101107.00
2022-09-23T13:37:59.753Z,101104.00
2022-09-23T13:40:32.296Z,101096.00
2022-09-23T13:43:06.991Z,101094.00
2022-09-23T13:45:43.330Z,101094.00
2022-09-23T13:48:17.807Z,101099.00
2022-09-23T13:50:53.537Z,101090.00
2022-09-23T13:53:30.463Z,101084.00
2022-09-23T13:56:06.752Z,101081.00
2022-09-23T13:58:38.887Z,101083.00
2022-09-23T14:01:12.239Z,101084.00
2022-09-23T14:03:44.272Z,101076.00
2022-09-23T14:06:18.787Z,101068.00
2022-09-23T14:08:51.644Z,101062.00
2022-09-23T14:11:25.573Z,101064.00
2022-09-23T14:13:57.132Z,101073.00
2022-09-23T14:16:29.762Z,101055.00
2022-09-23T14:19:02.616Z,101060.00
2022-09-23T14:21:38.063Z,101055.00
2022-09-23T14:24:21.331Z,101050.00
2022-09-23T14:26:56.193Z,101051.00
2022-09-23T14:29:30.257Z,101055.00
2022-09-23T14:32:04.310Z,101046.00
2022-09-23T14:34:49.708Z,101041.00
2022-09-23T14:37:45.203Z,101047.00
2022-09-23T14:40:20.276Z,101049.00
2022-09-23T14:42:54.336Z,101034.00
2022-09-23T14:45:27.731Z,101033.00
2022-09-23T14:48:02.673Z,101035.00
2022-09-23T14:50:47.396Z,101033.00
2022-09-23T14:53:40.836Z,101036.00
2022-09-23T14:56:17.912Z,101037.00
2022-09-23T14:58:53.669Z,101034.00
2022-09-23T15:01:41.791Z,101029.00
2022-09-23T15:04:20.299Z,101035.00
2022-09-23T15:06:56.713Z,101035.00
2022-09-23T15:09:32.213Z,101028.00
2022-09-23T15:12:05.892Z,101019.00
2022-09-23T15:14:41.215Z,101029.00
2022-09-23T15:17:32.700Z,101033.00
2022-09-23T15:20:07.082Z,101027.00
2022-09-23T15:22:49.388Z,101037.00
2022-09-23T15:25:28.336Z,101028.00
2022-09-23T15:28:05.970Z,101027.00
2022-09-23T15:30:39.944Z,101028.00
2022-09-23T15:33:10.968Z,101030.00
2022-09-23T15:35:48.626Z,101022.00
2022-09-23T15:38:19.513Z,101030.00
2022-09-23T15:40:52.745Z,101023.00
2022-09-23T15:43:26.868Z,101024.00
2022-09-23T15:46:00.735Z,101014.00
2022-09-23T15:48:33.728Z,101015.00
2022-09-23T15:51:10.091Z,101018.00
2022-09-23T15:53:41.064Z,101019.00
2022-09-23T15:56:14.080Z,101017.00
2022-09-23T15:58:44.401Z,101016.00
2022-09-23T16:01:21.034Z,101012.00
2022-09-23T16:03:51.471Z,101007.00
2022-09-23T16:06:21.765Z,101002.00
2022-09-23T16:08:52.395Z,101008.00
2022-09-23T16:11:32.291Z,101009.00
2022-09-23T16:14:03.507Z,101004.00
2022-09-23T16:16:34.033Z,101002.00
2022-09-23T16:19:04.327Z,101008.00
2022-09-23T16:21:34.633Z,101006.00
2022-09-23T16:24:05.144Z,101007.00
2022-09-23T16:26:40.358Z,101002.00
2022-09-23T16:29:12.641Z,100998.00
2022-09-23T16:31:43.279Z,100996.00
2022-09-23T16:34:13.555Z,101003.00
2022-09-23T16:36:46.435Z,101001.00
2022-09-23T16:39:17.342Z,101001.00
2022-09-23T16:41:50.503Z,100991.00
2022-09-23T16:44:21.399Z,100986.00
2022-09-23T16:46:51.858Z,100992.00
2022-09-23T16:49:22.345Z,100991.00
2022-09-23T16:51:52.950Z,100988.00
2022-09-23T16:54:24.076Z,100994.00
2022-09-23T16:56:59.096Z,100992.00
2022-09-23T16:59:50.594Z,100992.00
2022-09-23T17:02:33.455Z,100984.00
2022-09-23T17:05:03.948Z,100983.00
2022-09-23T17:07:34.387Z,100984.00
2022-09-23T17:10:05.007Z,100979.00
2022-09-23T17:12:38.101Z,100985.00
2022-09-23T17:15:10.247Z,100969.00
2022-09-23T17:17:41.094Z,100970.00
2022-09-23T17:20:13.289Z,100977.00
2022-09-23T17:22:44.357Z,100974.00
2022-09-23T17:25:14.901Z,100971.00
2022-09-23T17:27:47.780Z,100971.00
2022-09-23T17:30:18.423Z,100966.00
2022-09-23T17:32:48.679Z,100969.00
2022-09-23T17:35:19.868Z,100964.00
2022-09-23T17:37:50.299Z,100961.00
2022-09-23T17:40:20.803Z,100957.00
2022-09-23T17:42:53.723Z,100954.00
2022-09-23T17:45:24.066Z,100961.00
2022-09-23T17:47:55.608Z,100964.00
2022-09-23T17:50:25.681Z,100970.00
2022-09-23T17:52:55.842Z,100972.00
2022-09-23T17:55:26.114Z,100972.00
2022-09-23T17:57:59.101Z,100965.00
2022-09-23T18:00:29.433Z,100981.00
2022-09-23T18:02:59.806Z,100971.00
2022-09-23T18:05:29.866Z,100984.00
2022-09-23T18:08:04.001Z,100980.00
2022-09-23T18:10:36.212Z,100979.00
2022-09-23T18:13:09.406Z,100970.00
2022-09-23T18:15:40.639Z,100977.00
2022-09-23T18:18:10.958Z,100973.00
2022-09-23T18:20:41.201Z,100975.00
2022-09-23T18:23:11.582Z,100976.00
2022-09-23T18:25:42.407Z,100974.00
2022-09-23T18:28:16.005Z,100966.00
2022-09-23T18:30:56.771Z,100969.00
2022-09-23T18:33:28.021Z,100973.00
2022-09-23T18:35:58.288Z,100970.00
2022-09-23T18:38:28.799Z,100964.00
2022-09-23T18:41:01.161Z,100966.00
2022-09-23T18:43:41.415Z,100965.00
2022-09-23T18:46:16.575Z,100966.00
2022-09-23T18:49:00.140Z,100965.00
2022-09-23T18:51:34.740Z,100970.00
2022-09-23T18:54:07.828Z,100962.00
2022-09-23T18:56:43.888Z,100963.00
2022-09-23T18:59:20.831Z,100972.00
2022-09-23T19:01:55.678Z,100962.00
2022-09-23T19:04:29.154Z,100961.00
2022-09-23T19:06:59.603Z,100960.00
2022-09-23T19:09:30.418Z,100959.00
2022-09-23T19:12:02.623Z,100965.00
2022-09-23T19:14:35.284Z,100966.00
2022-09-23T19:17:05.584Z,100958.00
2022-09-23T19:19:35.980Z,100964.00
2022-09-23T19:22:07.494Z,100959.00
2022-09-23T19:24:37.694Z,100961.00
2022-09-23T19:27:08.005Z,100963.00
2022-09-23T19:29:40.761Z,100956.00
2022-09-23T19:32:11.499Z,100955.00
2022-09-23T19:34:41.846Z,100952.00
2022-09-23T19:37:12.386Z,100957.00
2022-09-23T19:39:42.670Z,100949.00
2022-09-23T19:42:12.913Z,100951.00
2022-09-23T19:44:45.844Z,100949.00
2022-09-23T19:47:17.934Z,100939.00
2022-09-23T19:49:48.729Z,100943.00
2022-09-23T19:52:18.988Z,100938.00
2022-09-23T19:54:49.264Z,100946.00
2022-09-23T19:57:19.619Z,100940.00
2022-09-23T19:59:52.477Z,100947.00
2022-09-23T20:02:22.627Z,100941.00
2022-09-23T20:04:53.245Z,100934.00
2022-09-23T20:07:23.445Z,100941.00
2022-09-23T20:09:53.569Z,100940.00
2022-09-23T20:12:23.958Z,100935.00
2022-09-23T20:14:56.601Z,100932.00
2022-09-23T20:17:26.790Z,100937.00
2022-09-23T20:19:57.021Z,100931.00
2022-09-23T20:22:33.593Z,100933.00
2022-09-23T20:25:04.870Z,100937.00
2022-09-23T20:27:32.767Z,100933.00
2022-09-23T20:30:05.705Z,100934.00
2022-09-23T20:32:36.884Z,100931.00
2022-09-23T20:35:08.275Z,100929.00
2022-09-23T20:37:38.413Z,100928.00
2022-09-23T20:40:10.387Z,100923.00
2022-09-23T20:42:41.063Z,100923.00
2022-09-23T20:45:14.155Z,100915.00
2022-09-23T20:47:44.419Z,100915.00
2022-09-23T20:50:14.565Z,100922.00
2022-09-23T20:52:44.715Z,100918.00
2022-09-23T20:55:15.605Z,100918.00
2022-09-23T20:57:46.119Z,100917.00
2022-09-23T21:00:19.614Z,100908.00
2022-09-23T21:02:49.711Z,100920.00
2022-09-23T21:05:20.277Z,100916.00
2022-09-23T21:07:51.116Z,100911.00
2022-09-23T21:10:23.087Z,100910.00
2022-09-23T21:12:53.593Z,100916.00
2022-09-23T21:15:26.468Z,100914.00
2022-09-23T21:17:56.873Z,100899.00
2022-09-23T21:20:27.434Z,100906.00
2022-09-23T21:22:57.798Z,100899.00
2022-09-23T21:25:29.189Z,100904.00
2022-09-23T21:28:02.061Z,100902.00
2022-09-23T21:30:35.280Z,100907.00
2022-09-23T21:33:06.324Z,100898.00
2022-09-23T21:35:36.429Z,100902.00
2022-09-23T21:38:06.601Z,100890.00
2022-09-23T21:40:49.314Z,100890.00
2022-09-23T21:43:20.189Z,100887.00
2022-09-23T21:45:59.618Z,100886.00
2022-09-23T21:48:35.398Z,100888.00
2022-09-23T21:51:08.331Z,100880.00
2022-09-23T21:53:39.729Z,100879.00
2022-09-23T21:56:15.744Z,100879.00
2022-09-23T21:58:48.670Z,100878.00
2022-09-23T22:01:23.871Z,100876.00
2022-09-23T22:03:56.547Z,100885.00
2022-09-23T22:06:28.913Z,100881.00
2022-09-23T22:09:02.152Z,100876.00
2022-09-23T22:11:47.590Z,100874.00
2022-09-23T22:14:20.460Z,100873.00
2022-09-23T22:16:53.532Z,100877.00
2022-09-23T22:19:23.714Z,100878.00
2022-09-23T22:21:53.940Z,100881.00
2022-09-23T22:24:24.108Z,100884.00
2022-09-23T22:26:54.672Z,100871.00
2022-09-23T22:29:37.374Z,100870.00
2022-09-23T22:32:27.224Z,100874.00
2022-09-23T22:34:57.351Z,100865.00
2022-09-23T22:37:30.522Z,100866.00
2022-09-23T22:40:00.706Z,100869.00
2022-09-23T22:42:31.439Z,100859.00
2022-09-23T22:45:02.047Z,100861.00
2022-09-23T22:47:37.877Z,100861.00
2022-09-23T22:50:11.507Z,100860.00
2022-09-23T22:52:41.917Z,100863.00
2022-09-23T22:55:12.899Z,100855.00
2022-09-23T22:57:43.057Z,100862.00
2022-09-23T23:00:15.228Z,100857.00
2022-09-23T23:02:47.980Z,100850.00
2022-09-23T23:05:18.316Z,100847.00
2022-09-23T23:07:48.501Z,100852.00
2022-09-23T23:10:19.490Z,100858.00
2022-09-23T23:12:52.315Z,100849.00
2022-09-23T23:15:22.959Z,100830.00
2022-09-23T23:17:59.324Z,100834.00
2022-09-23T23:20:30.067Z,100833.00
2022-09-23T23:23:00.197Z,100843.00
2022-09-23T23:25:30.425Z,100833.00
2022-09-23T23:28:00.629Z,100843.00
2022-09-23T23:30:30.752Z,100836.00
2022-09-23T23:33:03.541Z,100831.00
2022-09-23T23:35:33.741Z,100828.00
2022-09-23T23:38:03.946Z,100829.00
2022-09-23T23:40:34.285Z,100824.00
2022-09-23T23:43:05.403Z,100826.00
2022-09-23T23:45:35.670Z,100819.00
2022-09-23T23:48:08.617Z,100822.00
2022-09-23T23:50:39.199Z,100819.00
2022-09-23T23:53:12.055Z,100814.00
2022-09-23T23:55:42.211Z,100828.00
2022-09-23T23:58:12.476Z,100820.00
